Betagas — V2KA8 — position and weather

sailwx.info

Track history (hours):
 
Tides and Currents Weather Stations Pressure Air Temp Water Temp Dewpoint Dewpoint Depression Visibility Wind Speed Wind Dir Waves Ship Positions

Betagas

Last reported at 2018-Apr-24 18:28 UTC. Time now 2018-Apr-24 18:29 UTC.
Position N 51°21' E 003°46'.

Length 114.6 m; beam 15.7 m; draft 7.4 m.

Type: Tanker. MMSI: 304050636.

Date/timePositionNaut miles runAvg speedWind from/ knotsBaromVisibWave heightAir tempDewpointWater temp
2018-Apr-24 18:28N 51°21' E 003°46'0 0.0
2018-Apr-24 17:55N 51°21' E 003°46'0 0.0
2018-Apr-24 17:19N 51°21' E 003°46'0 0.0
2018-Apr-24 16:55N 51°21' E 003°46'0 0.0
2018-Apr-24 16:25N 51°21' E 003°46'0 0.0
2018-Apr-24 15:58N 51°21' E 003°46'0 0.0
2018-Apr-24 15:25N 51°21' E 003°46'0 0.0
2018-Apr-24 14:52N 51°21' E 003°46'0 0.0
2018-Apr-24 14:25N 51°21' E 003°46'0 0.0
2018-Apr-24 13:55N 51°21' E 003°46'0 0.0
2018-Apr-24 13:22N 51°21' E 003°46'0 0.0
2018-Apr-24 12:55N 51°21' E 003°46'0 0.0
2018-Apr-24 12:19N 51°21' E 003°46'0 0.0
2018-Apr-24 11:52N 51°21' E 003°46'0 0.0
2018-Apr-24 11:28N 51°21' E 003°46'0 0.0
2018-Apr-24 10:58N 51°21' E 003°46'0 0.0
2018-Apr-24 10:25N 51°21' E 003°46'0 0.0
2018-Apr-24 09:58N 51°21' E 003°46'1 2.3
2018-Apr-24 09:30N 51°22' E 003°45'612.4
2018-Apr-24 09:00N 51°26' E 003°38'510.0
2018-Apr-24 08:30N 51°28' E 003°31'611.9
2018-Apr-24 07:59N 51°33' E 003°25'712.9
2018-Apr-24 07:28N 51°39' E 003°20'612.3
2018-Apr-24 06:59N 51°44' E 003°15'3 6.6
2018-Apr-24 06:30N 51°47' E 003°19'3 5.6
2018-Apr-24 05:57N 51°49' E 003°22'0 0.0
2018-Apr-24 04:15N 51°49' E 003°22'0 0.0
2018-Apr-24 02:33N 51°49' E 003°22'0 0.0
2018-Apr-24 02:30N 51°49' E 003°22'0 0.1
2018-Apr-24 02:00N 51°49' E 003°22'0 0.0
2018-Apr-24 01:30N 51°49' E 003°22'0 0.0
2018-Apr-24 00:57N 51°49' E 003°22'0 0.0
2018-Apr-24 00:30N 51°49' E 003°22'0 0.0
2018-Apr-24 00:00N 51°49' E 003°22'0 0.0
2018-Apr-23 23:18N 51°49' E 003°22'0 0.0
2018-Apr-23 23:00N 51°49' E 003°22'0 0.0
2018-Apr-23 22:30N 51°49' E 003°22'0 0.0
2018-Apr-23 21:57N 51°49' E 003°22'0 0.0
2018-Apr-23 21:27N 51°49' E 003°22'3 5.4
2018-Apr-23 20:56N 51°52' E 003°20'612.9
2018-Apr-23 20:29N 51°58' E 003°21'613.2
2018-Apr-23 20:00N 52°04' E 003°23'612.5
2018-Apr-23 19:30N 52°10' E 003°21'1 1.4
2018-Apr-23 19:00N 52°09' E 003°22'3 6.0
2018-Apr-23 18:30N 52°07' E 003°25'3 5.1
2018-Apr-23 17:58N 52°05' E 003°28'511.4
2018-Apr-23 17:30N 52°04' E 003°37'714.9
2018-Apr-23 17:00N 52°03' E 003°49'611.9
2018-Apr-23 16:31N 52°01' E 003°58'612.8
2018-Apr-23 16:01N 51°58' E 004°07'4 8.2
2018-Apr-23 15:31N 51°56' E 004°12'0 0.7
2018-Apr-23 14:55N 51°55' E 004°12'0 0.0
2018-Apr-23 14:25N 51°55' E 004°12'0 0.0
2018-Apr-23 13:25N 51°55' E 004°12'0 0.0
2018-Apr-23 12:49N 51°55' E 004°12'0 0.0
2018-Apr-23 12:19N 51°55' E 004°12'0 0.0
2018-Apr-23 11:49N 51°55' E 004°12'0 0.0
2018-Apr-23 11:01N 51°55' E 004°12'0 0.0
2018-Apr-23 10:55N 51°55' E 004°12'0 0.0
2018-Apr-23 10:25N 51°55' E 004°12'0 0.0
2018-Apr-23 09:55N 51°55' E 004°12'0 0.0
2018-Apr-23 09:07N 51°55' E 004°12'0 0.0
2018-Apr-23 08:55N 51°55' E 004°12'0 0.0
2018-Apr-23 08:13N 51°55' E 004°12'0 0.0
2018-Apr-23 07:55N 51°55' E 004°12'0 0.0
2018-Apr-23 07:25N 51°55' E 004°12'0 0.0
2018-Apr-23 06:55N 51°55' E 004°12'0 0.0
2018-Apr-23 06:25N 51°55' E 004°12'0 0.0
2018-Apr-23 05:43N 51°55' E 004°12'0 0.0
2018-Apr-23 05:25N 51°55' E 004°12'0 0.0
2018-Apr-23 04:55N 51°55' E 004°12'0 0.0
2018-Apr-23 04:25N 51°55' E 004°12'0 0.0
2018-Apr-23 03:55N 51°55' E 004°12'0 0.0
2018-Apr-23 03:25N 51°55' E 004°12'0 0.0
2018-Apr-23 02:55N 51°55' E 004°12'0 0.0
2018-Apr-23 02:19N 51°55' E 004°12'0 0.0
2018-Apr-23 01:55N 51°55' E 004°12'0 0.0
2018-Apr-23 01:25N 51°55' E 004°12'0 0.0
2018-Apr-23 00:49N 51°55' E 004°12'0 0.0
2018-Apr-23 00:30N 51°55' E 004°12'0 0.6
2018-Apr-23 00:00N 51°55' E 004°12'1 2.7
2018-Apr-22 23:30N 51°56' E 004°10'5 9.6
2018-Apr-22 23:00N 51°59' E 004°04'612.6
2018-Apr-22 22:30N 51°60' E 003°54'612.1
2018-Apr-22 21:58N 51°60' E 003°43'511.0
2018-Apr-22 21:30N 52°05' E 003°40'4 8.2
2018-Apr-22 21:00N 52°09' E 003°37'2 3.6
2018-Apr-22 20:21N 52°11' E 003°36'0 0.0
2018-Apr-22 19:15N 52°11' E 003°36'0 0.0
2018-Apr-22 19:00N 52°11' E 003°36'0 0.0
2018-Apr-22 18:15N 52°11' E 003°36'0 0.0
2018-Apr-22 17:54N 52°11' E 003°36'0 0.1
2018-Apr-22 17:09N 52°10' E 003°36'0 0.0
2018-Apr-22 16:45N 52°10' E 003°36'0 0.0
2018-Apr-22 16:30N 52°10' E 003°36'0 0.1
2018-Apr-22 15:57N 52°10' E 003°36'0 0.2
2018-Apr-22 15:30N 52°10' E 003°36'0 0.1
2018-Apr-22 14:57N 52°10' E 003°35'0 0.1
2018-Apr-22 14:27N 52°10' E 003°35'0 0.0
2018-Apr-22 14:00N 52°10' E 003°35'0 0.0
2018-Apr-22 13:30N 52°10' E 003°35'0 0.0
2018-Apr-22 12:57N 52°10' E 003°35'0 0.0
2018-Apr-22 12:30N 52°10' E 003°35'0 0.1
2018-Apr-22 11:57N 52°10' E 003°36'0 0.1
2018-Apr-22 11:29N 52°10' E 003°36'5 9.8
2018-Apr-22 11:00N 52°11' E 003°28'714.6
2018-Apr-22 10:30N 52°13' E 003°16'4114.1
2018-Apr-22 07:36N 52°36' E 002°21'213.6
2018-Apr-22 07:29N 52°37' E 002°19'613.3
2018-Apr-22 07:00N 52°41' E 002°11'713.0
2018-Apr-22 06:30N 52°44' E 002°02'612.8
2018-Apr-22 06:00N 52°48' E 001°53'612.5
2018-Apr-22 05:30N 52°51' E 001°44'612.3
2018-Apr-22 05:00N 52°55' E 001°37'612.5
2018-Apr-22 04:30N 52°60' E 001°29'713.3
2018-Apr-22 04:00N 53°06' E 001°24'713.7
2018-Apr-22 03:30N 53°11' E 001°18'813.8
2018-Apr-22 02:57N 53°18' E 001°12'713.8
2018-Apr-22 02:26N 53°24' E 001°05'3114.0
2018-Apr-22 00:12N 53°33' E 000°15'2 9.3
2018-Apr-21 23:58N 53°33' E 000°11'510.3
2018-Apr-21 23:31N 53°35' E 000°04'815.5
2018-Apr-21 23:00N 53°38' W 000°08'3 5.6
2018-Apr-21 22:30N 53°39' W 000°13'0 0.0
2018-Apr-20 15:27N 53°39' W 000°12'0 0.2
2018-Apr-20 15:00N 53°39' W 000°12'1 1.3
2018-Apr-20 14:30N 53°39' W 000°12'3 5.1
2018-Apr-20 14:00N 53°37' W 000°08'5 9.9
2018-Apr-20 13:30N 53°35' W 000°00'4 6.6
2018-Apr-20 12:57N 53°33' E 000°05'0 0.6
2018-Apr-20 12:28N 53°33' E 000°04'0 0.0
2018-Apr-20 11:55N 53°33' E 000°04'0 0.0
2018-Apr-20 11:22N 53°33' E 000°04'0 0.1
2018-Apr-20 10:55N 53°33' E 000°04'0 0.0
2018-Apr-20 10:25N 53°33' E 000°04'0 0.0
2018-Apr-20 09:49N 53°33' E 000°04'0 0.1
2018-Apr-20 09:25N 53°33' E 000°04'0 0.1
2018-Apr-20 08:55N 53°33' E 000°04'0 0.2
2018-Apr-20 08:19N 53°33' E 000°04'0 0.0
2018-Apr-20 07:55N 53°33' E 000°04'0 0.1
2018-Apr-20 07:25N 53°33' E 000°04'0 0.0
2018-Apr-20 06:58N 53°33' E 000°04'0 0.0
2018-Apr-20 06:22N 53°33' E 000°04'0 0.0
2018-Apr-20 05:49N 53°33' E 000°04'0 0.0
2018-Apr-20 05:25N 53°33' E 000°04'0 0.0
2018-Apr-20 04:55N 53°33' E 000°04'0 0.0
2018-Apr-20 04:28N 53°33' E 000°04'0 0.0
2018-Apr-20 03:55N 53°33' E 000°04'0 0.2
2018-Apr-20 03:19N 53°33' E 000°04'0 0.0
2018-Apr-20 02:52N 53°33' E 000°04'0 0.1
2018-Apr-20 02:25N 53°33' E 000°04'0 0.0
2018-Apr-20 01:55N 53°33' E 000°04'0 0.0
2018-Apr-20 01:25N 53°33' E 000°04'0 0.0
2018-Apr-20 00:58N 53°33' E 000°04'0 0.0
2018-Apr-20 00:28N 53°33' E 000°04'0 0.0
2018-Apr-19 23:52N 53°33' E 000°04'0 0.0
2018-Apr-19 23:25N 53°33' E 000°04'0 0.0
2018-Apr-19 22:55N 53°33' E 000°04'0 0.0
2018-Apr-19 22:28N 53°33' E 000°04'0 0.0
2018-Apr-19 21:55N 53°33' E 000°04'0 0.1
2018-Apr-19 21:25N 53°33' E 000°04'0 0.1
2018-Apr-19 20:58N 53°33' E 000°04'0 0.2
2018-Apr-19 20:25N 53°33' E 000°04'0 0.1
2018-Apr-19 19:58N 53°33' E 000°04'0 0.0
2018-Apr-19 19:25N 53°33' E 000°04'0 0.0
2018-Apr-19 18:58N 53°33' E 000°04'0 0.0
2018-Apr-19 18:28N 53°33' E 000°04'0 0.0
2018-Apr-19 17:58N 53°33' E 000°04'0 0.0
2018-Apr-19 17:28N 53°33' E 000°04'0 0.0
2018-Apr-19 16:58N 53°33' E 000°04'0 0.0
2018-Apr-19 16:28N 53°33' E 000°04'0 0.0
2018-Apr-19 15:58N 53°33' E 000°04'0 0.0
2018-Apr-19 15:25N 53°33' E 000°04'0 0.0
2018-Apr-19 14:52N 53°33' E 000°04'0 0.1
2018-Apr-19 14:19N 53°33' E 000°04'0 0.1
2018-Apr-19 13:55N 53°33' E 000°04'0 0.1
2018-Apr-19 13:28N 53°33' E 000°04'0 0.0
2018-Apr-19 12:58N 53°33' E 000°04'0 0.0
2018-Apr-19 12:25N 53°33' E 000°04'0 0.0
2018-Apr-19 11:58N 53°33' E 000°04'0 0.0
2018-Apr-19 11:25N 53°33' E 000°04'0 0.0
2018-Apr-19 10:49N 53°33' E 000°04'0 0.0
2018-Apr-19 10:28N 53°33' E 000°04'0 0.1
2018-Apr-19 09:43N 53°33' E 000°04'0 0.1
2018-Apr-19 09:28N 53°33' E 000°04'0 0.1
2018-Apr-19 08:58N 53°33' E 000°04'0 0.2
2018-Apr-19 08:28N 53°33' E 000°04'0 0.1
2018-Apr-19 07:58N 53°33' E 000°04'0 0.0
2018-Apr-19 07:25N 53°33' E 000°04'0 0.0
2018-Apr-19 06:58N 53°33' E 000°04'0 0.0
2018-Apr-19 06:25N 53°33' E 000°04'0 0.0
2018-Apr-19 05:58N 53°33' E 000°04'0 0.0
2018-Apr-19 05:28N 53°33' E 000°04'0 0.0
2018-Apr-19 04:58N 53°33' E 000°04'0 0.0
2018-Apr-19 04:28N 53°33' E 000°04'0 0.0
2018-Apr-19 03:55N 53°33' E 000°04'0 0.0
2018-Apr-19 03:28N 53°33' E 000°04'0 0.0
2018-Apr-19 02:55N 53°33' E 000°04'0 0.1
2018-Apr-19 02:25N 53°33' E 000°04'0 0.2
2018-Apr-19 01:55N 53°33' E 000°04'0 0.0
2018-Apr-19 01:25N 53°33' E 000°04'0 0.1
2018-Apr-19 00:55N 53°33' E 000°04'0 0.1
2018-Apr-19 00:25N 53°33' E 000°04'0 0.0
2018-Apr-18 23:58N 53°33' E 000°04'0 0.0
2018-Apr-18 23:28N 53°33' E 000°04'0 0.0
2018-Apr-18 22:55N 53°33' E 000°04'0 0.0
2018-Apr-18 22:28N 53°33' E 000°04'0 0.0
2018-Apr-18 21:55N 53°33' E 000°04'0 0.1
2018-Apr-18 21:28N 53°33' E 000°04'0 0.1
2018-Apr-18 20:55N 53°33' E 000°04'0 0.1
2018-Apr-18 20:25N 53°33' E 000°04'0 0.1
2018-Apr-18 19:58N 53°33' E 000°04'0 0.1
2018-Apr-18 19:07N 53°33' E 000°04'0 0.0
2018-Apr-18 18:25N 53°33' E 000°04'0 0.0
2018-Apr-18 17:43N 53°33' E 000°04'0 0.0
2018-Apr-18 17:25N 53°33' E 000°04'0 0.1
2018-Apr-18 16:58N 53°33' E 000°04'0 0.0
2018-Apr-18 16:25N 53°33' E 000°04'0 0.1
2018-Apr-18 15:52N 53°33' E 000°04'0 0.0
2018-Apr-18 15:16N 53°33' E 000°04'0 0.1
2018-Apr-18 14:55N 53°33' E 000°04'0 0.0
2018-Apr-18 14:28N 53°33' E 000°04'0 0.1
2018-Apr-18 13:55N 53°33' E 000°04'0 0.2
2018-Apr-18 13:19N 53°33' E 000°04'0 0.0
2018-Apr-18 12:43N 53°33' E 000°04'0 0.0
2018-Apr-18 12:25N 53°33' E 000°04'0 0.0
2018-Apr-18 11:55N 53°33' E 000°04'0 0.0
2018-Apr-18 11:28N 53°33' E 000°04'0 0.0
2018-Apr-18 10:55N 53°33' E 000°04'0 0.0
2018-Apr-18 10:25N 53°33' E 000°04'0 0.0
2018-Apr-18 09:55N 53°33' E 000°04'0 0.0
2018-Apr-18 09:19N 53°33' E 000°04'0 0.1
2018-Apr-18 08:58N 53°33' E 000°04'0 0.1
2018-Apr-18 08:25N 53°33' E 000°04'0 0.1
2018-Apr-18 07:55N 53°33' E 000°04'0 0.1
2018-Apr-18 07:28N 53°33' E 000°04'0 0.1
2018-Apr-18 06:55N 53°33' E 000°04'0 0.1
2018-Apr-18 06:28N 53°33' E 000°04'0 0.0
2018-Apr-18 05:58N 53°33' E 000°04'0 0.0
2018-Apr-18 05:28N 53°33' E 000°04'0 0.0
2018-Apr-18 04:55N 53°33' E 000°04'0 0.0
2018-Apr-18 04:25N 53°33' E 000°04'0 0.0
2018-Apr-18 03:55N 53°33' E 000°04'0 0.0
2018-Apr-18 03:28N 53°33' E 000°04'0 0.0
2018-Apr-18 02:49N 53°33' E 000°04'0 0.0
2018-Apr-18 02:25N 53°33' E 000°04'0 0.0
2018-Apr-18 01:55N 53°33' E 000°04'0 0.1
2018-Apr-18 01:13N 53°33' E 000°04'0 0.2
2018-Apr-18 00:58N 53°33' E 000°04'0 0.1
2018-Apr-18 00:25N 53°33' E 000°04'0 0.0
2018-Apr-17 23:55N 53°33' E 000°04'0 0.0
2018-Apr-17 23:28N 53°33' E 000°04'0 0.0
2018-Apr-17 22:55N 53°33' E 000°04'0 0.0
2018-Apr-17 22:25N 53°33' E 000°04'0 0.0
2018-Apr-17 21:07N 53°33' E 000°04'0 0.1
2018-Apr-17 20:58N 53°33' E 000°04'0 0.1
2018-Apr-17 20:25N 53°33' E 000°04'0 0.2
2018-Apr-17 19:55N 53°33' E 000°04'0 0.1
2018-Apr-17 19:28N 53°33' E 000°04'0 0.1
2018-Apr-17 18:58N 53°33' E 000°04'0 0.1
2018-Apr-17 18:19N 53°33' E 000°04'0 0.1
2018-Apr-17 17:55N 53°33' E 000°04'0 0.0
2018-Apr-17 17:25N 53°33' E 000°04'0 0.0
2018-Apr-17 16:55N 53°33' E 000°04'0 0.0
2018-Apr-17 16:28N 53°33' E 000°04'0 0.0
2018-Apr-17 15:55N 53°33' E 000°04'0 0.0
2018-Apr-17 15:19N 53°33' E 000°04'0 0.0
2018-Apr-17 14:49N 53°33' E 000°04'0 0.1
2018-Apr-17 14:25N 53°33' E 000°04'0 0.1
2018-Apr-17 13:55N 53°33' E 000°04'0 0.1
2018-Apr-17 13:25N 53°33' E 000°04'0 0.1
2018-Apr-17 12:55N 53°33' E 000°04'0 0.0
2018-Apr-17 12:25N 53°33' E 000°04'0 0.0
2018-Apr-17 11:49N 53°33' E 000°04'0 0.1
2018-Apr-17 11:28N 53°33' E 000°04'0 0.0
2018-Apr-17 10:43N 53°33' E 000°04'0 0.1
2018-Apr-17 10:25N 53°33' E 000°04'0 0.1
2018-Apr-17 09:58N 53°33' E 000°04'0 0.0
2018-Apr-17 09:25N 53°33' E 000°04'0 0.0
2018-Apr-17 08:58N 53°33' E 000°04'0 0.1
2018-Apr-17 08:19N 53°33' E 000°04'0 0.2
2018-Apr-17 07:55N 53°33' E 000°04'0 0.1
2018-Apr-17 07:25N 53°33' E 000°04'0 0.1
2018-Apr-17 06:58N 53°33' E 000°04'0 0.1
2018-Apr-17 06:25N 53°33' E 000°04'0 0.1
2018-Apr-17 05:55N 53°33' E 000°04'0 0.0
2018-Apr-17 05:22N 53°33' E 000°04'0 0.0
2018-Apr-17 04:58N 53°33' E 000°04'0 0.0
2018-Apr-17 04:19N 53°33' E 000°04'0 0.0
2018-Apr-17 03:58N 53°33' E 000°04'0 0.0
2018-Apr-17 03:28N 53°33' E 000°04'0 0.0
2018-Apr-17 02:55N 53°33' E 000°04'0 0.0
2018-Apr-17 02:25N 53°33' E 000°04'0 0.0
2018-Apr-17 01:55N 53°33' E 000°04'0 0.0
2018-Apr-17 01:25N 53°33' E 000°04'0 0.1
2018-Apr-17 00:55N 53°33' E 000°04'0 0.3
2018-Apr-17 00:25N 53°33' E 000°04'0 0.1
2018-Apr-16 23:58N 53°33' E 000°04'0 0.0
2018-Apr-16 23:25N 53°33' E 000°04'0 0.0
2018-Apr-16 22:58N 53°33' E 000°04'0 0.0
2018-Apr-16 22:28N 53°33' E 000°04'0 0.0
2018-Apr-16 21:55N 53°33' E 000°04'0 0.0
2018-Apr-16 20:55N 53°33' E 000°04'0 0.0
2018-Apr-16 20:25N 53°33' E 000°04'0 0.1
2018-Apr-16 19:58N 53°33' E 000°04'0 0.1
2018-Apr-16 19:25N 53°33' E 000°04'0 0.1
2018-Apr-16 18:58N 53°33' E 000°04'0 0.1
2018-Apr-16 18:25N 53°33' E 000°04'0 0.1
2018-Apr-16 17:43N 53°33' E 000°04'0 0.0
2018-Apr-16 17:25N 53°33' E 000°04'0 0.0
2018-Apr-16 16:49N 53°33' E 000°04'0 0.0
2018-Apr-16 16:28N 53°33' E 000°04'0 0.0
2018-Apr-16 15:55N 53°33' E 000°04'0 0.0
2018-Apr-16 15:25N 53°33' E 000°04'0 0.0
2018-Apr-16 14:55N 53°33' E 000°04'0 0.0
2018-Apr-16 14:25N 53°33' E 000°04'0 0.0
2018-Apr-16 13:58N 53°33' E 000°04'0 0.1
2018-Apr-16 13:25N 53°33' E 000°04'0 0.3
2018-Apr-16 12:52N 53°33' E 000°04'0 0.0
2018-Apr-16 12:25N 53°33' E 000°04'0 0.0
2018-Apr-16 11:58N 53°33' E 000°04'0 0.0
2018-Apr-16 11:07N 53°33' E 000°04'0 0.0
2018-Apr-16 10:56N 53°33' E 000°04'0 0.9
2018-Apr-16 10:30N 53°33' E 000°05'4 8.7
2018-Apr-16 10:00N 53°33' E 000°13'4512.2
2018-Apr-16 06:17N 53°11' E 001°19'413.6
2018-Apr-16 05:59N 53°07' E 001°22'714.0
2018-Apr-16 05:30N 53°02' E 001°28'714.5
2018-Apr-16 05:00N 52°56' E 001°35'815.2
2018-Apr-16 04:30N 52°51' E 001°45'816.2
2018-Apr-16 04:00N 52°47' E 001°56'816.2
2018-Apr-16 03:30N 52°40' E 002°04'5616.6
2018-Apr-16 00:06N 51°47' E 002°34'416.7
2018-Apr-15 23:51N 51°43' E 002°30'616.5
2018-Apr-15 23:27N 51°38' E 002°24'716.3
2018-Apr-15 23:00N 51°32' E 002°17'815.9
2018-Apr-15 22:30N 51°25' E 002°10'715.1
2018-Apr-15 22:00N 51°18' E 002°06'714.0
2018-Apr-15 21:30N 51°12' E 001°60'714.2
2018-Apr-15 21:00N 51°09' E 001°50'713.5
2018-Apr-15 20:30N 51°05' E 001°42'612.6
2018-Apr-15 20:00N 51°00' E 001°34'812.7
2018-Apr-15 19:24N 50°54' E 001°27'6112.8
2018-Apr-15 14:38N 50°19' E 000°09'213.6
2018-Apr-15 14:30N 50°18' E 000°07'713.2
2018-Apr-15 14:00N 50°14' W 000°02'714.9
2018-Apr-15 13:30N 50°07' W 000°04'714.9
2018-Apr-15 13:00N 49°59' W 000°05'815.2
2018-Apr-15 12:30N 49°52' W 000°06'715.0
2018-Apr-15 12:00N 49°44' W 000°09'815.1
2018-Apr-15 11:30N 49°37' W 000°07'713.8
2018-Apr-15 11:00N 49°30' W 000°04'713.3
2018-Apr-15 10:30N 49°29' E 000°06'3 5.2
2018-Apr-15 10:00N 49°29' E 000°10'0 0.4
2018-Apr-15 09:30N 49°29' E 000°11'2 3.3
2018-Apr-15 09:00N 49°28' E 000°13'0 0.0
2018-Apr-15 08:28N 49°28' E 000°13'0 0.0
2018-Apr-15 07:58N 49°28' E 000°13'0 0.0
2018-Apr-15 07:28N 49°28' E 000°13'0 0.0
2018-Apr-15 06:58N 49°28' E 000°13'0 0.0
2018-Apr-15 06:28N 49°28' E 000°13'0 0.0
2018-Apr-15 05:58N 49°28' E 000°13'0 0.0
2018-Apr-15 05:28N 49°28' E 000°13'0 0.0
2018-Apr-15 04:58N 49°28' E 000°13'0 0.0
2018-Apr-15 04:28N 49°28' E 000°13'0 0.0
2018-Apr-15 03:58N 49°28' E 000°13'0 0.0
2018-Apr-15 03:28N 49°28' E 000°13'0 0.0
2018-Apr-15 02:58N 49°28' E 000°13'0 0.0
2018-Apr-15 02:28N 49°28' E 000°13'0 0.0
2018-Apr-15 01:58N 49°28' E 000°13'0 0.0
2018-Apr-15 01:28N 49°28' E 000°13'0 0.0
2018-Apr-15 00:58N 49°28' E 000°13'0 0.0
2018-Apr-15 00:28N 49°28' E 000°13'0 0.0
2018-Apr-14 23:58N 49°28' E 000°13'0 0.0
2018-Apr-14 23:28N 49°28' E 000°13'0 0.0
2018-Apr-14 22:58N 49°28' E 000°13'0 0.0
2018-Apr-14 22:28N 49°28' E 000°13'0 0.0
2018-Apr-14 21:58N 49°28' E 000°13'0 0.0
2018-Apr-14 21:28N 49°28' E 000°13'0 0.0
2018-Apr-14 20:58N 49°28' E 000°13'0 0.0
2018-Apr-14 20:28N 49°28' E 000°13'0 0.0
2018-Apr-14 19:58N 49°28' E 000°13'0 0.2
2018-Apr-14 19:28N 49°28' E 000°13'2 3.9
2018-Apr-14 19:00N 49°29' E 000°10'1 1.2
2018-Apr-14 18:30N 49°28' E 000°10'4 7.3
2018-Apr-14 18:01N 49°29' E 000°04'  
Track history (hours):
 
Tides and Currents Weather Stations Pressure Air Temp Water Temp Dewpoint Dewpoint Depression Visibility Wind Speed Wind Dir Waves Ship Positions

Betagas

Last reported at 2018-Apr-24 18:28 UTC. Time now 2018-Apr-24 18:29 UTC.
Position N 51°21' E 003°46'.

Length 114.6 m; beam 15.7 m; draft 7.4 m.

Type: Tanker. MMSI: 304050636.

Date/timePositionNaut miles runAvg speedWind from/ knotsBaromVisibWave heightAir tempDewpointWater temp
2018-Apr-24 18:28N 51°21' E 003°46'0 0.0
2018-Apr-24 17:55N 51°21' E 003°46'0 0.0
2018-Apr-24 17:19N 51°21' E 003°46'0 0.0
2018-Apr-24 16:55N 51°21' E 003°46'0 0.0
2018-Apr-24 16:25N 51°21' E 003°46'0 0.0
2018-Apr-24 15:58N 51°21' E 003°46'0 0.0
2018-Apr-24 15:25N 51°21' E 003°46'0 0.0
2018-Apr-24 14:52N 51°21' E 003°46'0 0.0
2018-Apr-24 14:25N 51°21' E 003°46'0 0.0
2018-Apr-24 13:55N 51°21' E 003°46'0 0.0
2018-Apr-24 13:22N 51°21' E 003°46'0 0.0
2018-Apr-24 12:55N 51°21' E 003°46'0 0.0
2018-Apr-24 12:19N 51°21' E 003°46'0 0.0
2018-Apr-24 11:52N 51°21' E 003°46'0 0.0
2018-Apr-24 11:28N 51°21' E 003°46'0 0.0
2018-Apr-24 10:58N 51°21' E 003°46'0 0.0
2018-Apr-24 10:25N 51°21' E 003°46'0 0.0
2018-Apr-24 09:58N 51°21' E 003°46'1 2.3
2018-Apr-24 09:30N 51°22' E 003°45'612.4
2018-Apr-24 09:00N 51°26' E 003°38'510.0
2018-Apr-24 08:30N 51°28' E 003°31'611.9
2018-Apr-24 07:59N 51°33' E 003°25'712.9
2018-Apr-24 07:28N 51°39' E 003°20'612.3
2018-Apr-24 06:59N 51°44' E 003°15'3 6.6
2018-Apr-24 06:30N 51°47' E 003°19'3 5.6
2018-Apr-24 05:57N 51°49' E 003°22'0 0.0
2018-Apr-24 04:15N 51°49' E 003°22'0 0.0
2018-Apr-24 02:33N 51°49' E 003°22'0 0.0
2018-Apr-24 02:30N 51°49' E 003°22'0 0.1
2018-Apr-24 02:00N 51°49' E 003°22'0 0.0
2018-Apr-24 01:30N 51°49' E 003°22'0 0.0
2018-Apr-24 00:57N 51°49' E 003°22'0 0.0
2018-Apr-24 00:30N 51°49' E 003°22'0 0.0
2018-Apr-24 00:00N 51°49' E 003°22'0 0.0
2018-Apr-23 23:18N 51°49' E 003°22'0 0.0
2018-Apr-23 23:00N 51°49' E 003°22'0 0.0
2018-Apr-23 22:30N 51°49' E 003°22'0 0.0
2018-Apr-23 21:57N 51°49' E 003°22'0 0.0
2018-Apr-23 21:27N 51°49' E 003°22'3 5.4
2018-Apr-23 20:56N 51°52' E 003°20'612.9
2018-Apr-23 20:29N 51°58' E 003°21'613.2
2018-Apr-23 20:00N 52°04' E 003°23'612.5
2018-Apr-23 19:30N 52°10' E 003°21'1 1.4
2018-Apr-23 19:00N 52°09' E 003°22'3 6.0
2018-Apr-23 18:30N 52°07' E 003°25'3 5.1
2018-Apr-23 17:58N 52°05' E 003°28'511.4
2018-Apr-23 17:30N 52°04' E 003°37'714.9
2018-Apr-23 17:00N 52°03' E 003°49'611.9
2018-Apr-23 16:31N 52°01' E 003°58'612.8
2018-Apr-23 16:01N 51°58' E 004°07'4 8.2
2018-Apr-23 15:31N 51°56' E 004°12'0 0.7
2018-Apr-23 14:55N 51°55' E 004°12'0 0.0
2018-Apr-23 14:25N 51°55' E 004°12'0 0.0
2018-Apr-23 13:25N 51°55' E 004°12'0 0.0
2018-Apr-23 12:49N 51°55' E 004°12'0 0.0
2018-Apr-23 12:19N 51°55' E 004°12'0 0.0
2018-Apr-23 11:49N 51°55' E 004°12'0 0.0
2018-Apr-23 11:01N 51°55' E 004°12'0 0.0
2018-Apr-23 10:55N 51°55' E 004°12'0 0.0
2018-Apr-23 10:25N 51°55' E 004°12'0 0.0
2018-Apr-23 09:55N 51°55' E 004°12'0 0.0
2018-Apr-23 09:07N 51°55' E 004°12'0 0.0
2018-Apr-23 08:55N 51°55' E 004°12'0 0.0
2018-Apr-23 08:13N 51°55' E 004°12'0 0.0
2018-Apr-23 07:55N 51°55' E 004°12'0 0.0
2018-Apr-23 07:25N 51°55' E 004°12'0 0.0
2018-Apr-23 06:55N 51°55' E 004°12'0 0.0
2018-Apr-23 06:25N 51°55' E 004°12'0 0.0
2018-Apr-23 05:43N 51°55' E 004°12'0 0.0
2018-Apr-23 05:25N 51°55' E 004°12'0 0.0
2018-Apr-23 04:55N 51°55' E 004°12'0 0.0
2018-Apr-23 04:25N 51°55' E 004°12'0 0.0
2018-Apr-23 03:55N 51°55' E 004°12'0 0.0
2018-Apr-23 03:25N 51°55' E 004°12'0 0.0
2018-Apr-23 02:55N 51°55' E 004°12'0 0.0
2018-Apr-23 02:19N 51°55' E 004°12'0 0.0
2018-Apr-23 01:55N 51°55' E 004°12'0 0.0
2018-Apr-23 01:25N 51°55' E 004°12'0 0.0
2018-Apr-23 00:49N 51°55' E 004°12'0 0.0
2018-Apr-23 00:30N 51°55' E 004°12'0 0.6
2018-Apr-23 00:00N 51°55' E 004°12'1 2.7
2018-Apr-22 23:30N 51°56' E 004°10'5 9.6
2018-Apr-22 23:00N 51°59' E 004°04'612.6
2018-Apr-22 22:30N 51°60' E 003°54'612.1
2018-Apr-22 21:58N 51°60' E 003°43'511.0
2018-Apr-22 21:30N 52°05' E 003°40'4 8.2
2018-Apr-22 21:00N 52°09' E 003°37'2 3.6
2018-Apr-22 20:21N 52°11' E 003°36'0 0.0
2018-Apr-22 19:15N 52°11' E 003°36'0 0.0
2018-Apr-22 19:00N 52°11' E 003°36'0 0.0
2018-Apr-22 18:15N 52°11' E 003°36'0 0.0
2018-Apr-22 17:54N 52°11' E 003°36'0 0.1
2018-Apr-22 17:09N 52°10' E 003°36'0 0.0
2018-Apr-22 16:45N 52°10' E 003°36'0 0.0
2018-Apr-22 16:30N 52°10' E 003°36'0 0.1
2018-Apr-22 15:57N 52°10' E 003°36'0 0.2
2018-Apr-22 15:30N 52°10' E 003°36'0 0.1
2018-Apr-22 14:57N 52°10' E 003°35'0 0.1
2018-Apr-22 14:27N 52°10' E 003°35'0 0.0
2018-Apr-22 14:00N 52°10' E 003°35'0 0.0
2018-Apr-22 13:30N 52°10' E 003°35'0 0.0
2018-Apr-22 12:57N 52°10' E 003°35'0 0.0
2018-Apr-22 12:30N 52°10' E 003°35'0 0.1
2018-Apr-22 11:57N 52°10' E 003°36'0 0.1
2018-Apr-22 11:29N 52°10' E 003°36'5 9.8
2018-Apr-22 11:00N 52°11' E 003°28'714.6
2018-Apr-22 10:30N 52°13' E 003°16'4114.1
2018-Apr-22 07:36N 52°36' E 002°21'213.6
2018-Apr-22 07:29N 52°37' E 002°19'613.3
2018-Apr-22 07:00N 52°41' E 002°11'713.0
2018-Apr-22 06:30N 52°44' E 002°02'612.8
2018-Apr-22 06:00N 52°48' E 001°53'612.5
2018-Apr-22 05:30N 52°51' E 001°44'612.3
2018-Apr-22 05:00N 52°55' E 001°37'612.5
2018-Apr-22 04:30N 52°60' E 001°29'713.3
2018-Apr-22 04:00N 53°06' E 001°24'713.7
2018-Apr-22 03:30N 53°11' E 001°18'813.8
2018-Apr-22 02:57N 53°18' E 001°12'713.8
2018-Apr-22 02:26N 53°24' E 001°05'3114.0
2018-Apr-22 00:12N 53°33' E 000°15'2 9.3
2018-Apr-21 23:58N 53°33' E 000°11'510.3
2018-Apr-21 23:31N 53°35' E 000°04'815.5
2018-Apr-21 23:00N 53°38' W 000°08'3 5.6
2018-Apr-21 22:30N 53°39' W 000°13'0 0.0
2018-Apr-20 15:27N 53°39' W 000°12'0 0.2
2018-Apr-20 15:00N 53°39' W 000°12'1 1.3
2018-Apr-20 14:30N 53°39' W 000°12'3 5.1
2018-Apr-20 14:00N 53°37' W 000°08'5 9.9
2018-Apr-20 13:30N 53°35' W 000°00'4 6.6
2018-Apr-20 12:57N 53°33' E 000°05'0 0.6
2018-Apr-20 12:28N 53°33' E 000°04'0 0.0
2018-Apr-20 11:55N 53°33' E 000°04'0 0.0
2018-Apr-20 11:22N 53°33' E 000°04'0 0.1
2018-Apr-20 10:55N 53°33' E 000°04'0 0.0
2018-Apr-20 10:25N 53°33' E 000°04'0 0.0
2018-Apr-20 09:49N 53°33' E 000°04'0 0.1
2018-Apr-20 09:25N 53°33' E 000°04'0 0.1
2018-Apr-20 08:55N 53°33' E 000°04'0 0.2
2018-Apr-20 08:19N 53°33' E 000°04'0 0.0
2018-Apr-20 07:55N 53°33' E 000°04'0 0.1
2018-Apr-20 07:25N 53°33' E 000°04'0 0.0
2018-Apr-20 06:58N 53°33' E 000°04'0 0.0
2018-Apr-20 06:22N 53°33' E 000°04'0 0.0
2018-Apr-20 05:49N 53°33' E 000°04'0 0.0
2018-Apr-20 05:25N 53°33' E 000°04'0 0.0
2018-Apr-20 04:55N 53°33' E 000°04'0 0.0
2018-Apr-20 04:28N 53°33' E 000°04'0 0.0
2018-Apr-20 03:55N 53°33' E 000°04'0 0.2
2018-Apr-20 03:19N 53°33' E 000°04'0 0.0
2018-Apr-20 02:52N 53°33' E 000°04'0 0.1
2018-Apr-20 02:25N 53°33' E 000°04'0 0.0
2018-Apr-20 01:55N 53°33' E 000°04'0 0.0
2018-Apr-20 01:25N 53°33' E 000°04'0 0.0
2018-Apr-20 00:58N 53°33' E 000°04'0 0.0
2018-Apr-20 00:28N 53°33' E 000°04'0 0.0
2018-Apr-19 23:52N 53°33' E 000°04'0 0.0
2018-Apr-19 23:25N 53°33' E 000°04'0 0.0
2018-Apr-19 22:55N 53°33' E 000°04'0 0.0
2018-Apr-19 22:28N 53°33' E 000°04'0 0.0
2018-Apr-19 21:55N 53°33' E 000°04'0 0.1
2018-Apr-19 21:25N 53°33' E 000°04'0 0.1
2018-Apr-19 20:58N 53°33' E 000°04'0 0.2
2018-Apr-19 20:25N 53°33' E 000°04'0 0.1
2018-Apr-19 19:58N 53°33' E 000°04'0 0.0
2018-Apr-19 19:25N 53°33' E 000°04'0 0.0
2018-Apr-19 18:58N 53°33' E 000°04'0 0.0
2018-Apr-19 18:28N 53°33' E 000°04'0 0.0
2018-Apr-19 17:58N 53°33' E 000°04'0 0.0
2018-Apr-19 17:28N 53°33' E 000°04'0 0.0
2018-Apr-19 16:58N 53°33' E 000°04'0 0.0
2018-Apr-19 16:28N 53°33' E 000°04'0 0.0
2018-Apr-19 15:58N 53°33' E 000°04'0 0.0
2018-Apr-19 15:25N 53°33' E 000°04'0 0.0
2018-Apr-19 14:52N 53°33' E 000°04'0 0.1
2018-Apr-19 14:19N 53°33' E 000°04'0 0.1
2018-Apr-19 13:55N 53°33' E 000°04'0 0.1
2018-Apr-19 13:28N 53°33' E 000°04'0 0.0
2018-Apr-19 12:58N 53°33' E 000°04'0 0.0
2018-Apr-19 12:25N 53°33' E 000°04'0 0.0
2018-Apr-19 11:58N 53°33' E 000°04'0 0.0
2018-Apr-19 11:25N 53°33' E 000°04'0 0.0
2018-Apr-19 10:49N 53°33' E 000°04'0 0.0
2018-Apr-19 10:28N 53°33' E 000°04'0 0.1
2018-Apr-19 09:43N 53°33' E 000°04'0 0.1
2018-Apr-19 09:28N 53°33' E 000°04'0 0.1
2018-Apr-19 08:58N 53°33' E 000°04'0 0.2
2018-Apr-19 08:28N 53°33' E 000°04'0 0.1
2018-Apr-19 07:58N 53°33' E 000°04'0 0.0
2018-Apr-19 07:25N 53°33' E 000°04'0 0.0
2018-Apr-19 06:58N 53°33' E 000°04'0 0.0
2018-Apr-19 06:25N 53°33' E 000°04'0 0.0
2018-Apr-19 05:58N 53°33' E 000°04'0 0.0
2018-Apr-19 05:28N 53°33' E 000°04'0 0.0
2018-Apr-19 04:58N 53°33' E 000°04'0 0.0
2018-Apr-19 04:28N 53°33' E 000°04'0 0.0
2018-Apr-19 03:55N 53°33' E 000°04'0 0.0
2018-Apr-19 03:28N 53°33' E 000°04'0 0.0
2018-Apr-19 02:55N 53°33' E 000°04'0 0.1
2018-Apr-19 02:25N 53°33' E 000°04'0 0.2
2018-Apr-19 01:55N 53°33' E 000°04'0 0.0
2018-Apr-19 01:25N 53°33' E 000°04'0 0.1
2018-Apr-19 00:55N 53°33' E 000°04'0 0.1
2018-Apr-19 00:25N 53°33' E 000°04'0 0.0
2018-Apr-18 23:58N 53°33' E 000°04'0 0.0
2018-Apr-18 23:28N 53°33' E 000°04'0 0.0
2018-Apr-18 22:55N 53°33' E 000°04'0 0.0
2018-Apr-18 22:28N 53°33' E 000°04'0 0.0
2018-Apr-18 21:55N 53°33' E 000°04'0 0.1
2018-Apr-18 21:28N 53°33' E 000°04'0 0.1
2018-Apr-18 20:55N 53°33' E 000°04'0 0.1
2018-Apr-18 20:25N 53°33' E 000°04'0 0.1
2018-Apr-18 19:58N 53°33' E 000°04'0 0.1
2018-Apr-18 19:07N 53°33' E 000°04'0 0.0
2018-Apr-18 18:25N 53°33' E 000°04'0 0.0
2018-Apr-18 17:43N 53°33' E 000°04'0 0.0
2018-Apr-18 17:25N 53°33' E 000°04'0 0.1
2018-Apr-18 16:58N 53°33' E 000°04'0 0.0
2018-Apr-18 16:25N 53°33' E 000°04'0 0.1
2018-Apr-18 15:52N 53°33' E 000°04'0 0.0
2018-Apr-18 15:16N 53°33' E 000°04'0 0.1
2018-Apr-18 14:55N 53°33' E 000°04'0 0.0
2018-Apr-18 14:28N 53°33' E 000°04'0 0.1
2018-Apr-18 13:55N 53°33' E 000°04'0 0.2
2018-Apr-18 13:19N 53°33' E 000°04'0 0.0
2018-Apr-18 12:43N 53°33' E 000°04'0 0.0
2018-Apr-18 12:25N 53°33' E 000°04'0 0.0
2018-Apr-18 11:55N 53°33' E 000°04'0 0.0
2018-Apr-18 11:28N 53°33' E 000°04'0 0.0
2018-Apr-18 10:55N 53°33' E 000°04'0 0.0
2018-Apr-18 10:25N 53°33' E 000°04'0 0.0
2018-Apr-18 09:55N 53°33' E 000°04'0 0.0
2018-Apr-18 09:19N 53°33' E 000°04'0 0.1
2018-Apr-18 08:58N 53°33' E 000°04'0 0.1
2018-Apr-18 08:25N 53°33' E 000°04'0 0.1
2018-Apr-18 07:55N 53°33' E 000°04'0 0.1
2018-Apr-18 07:28N 53°33' E 000°04'0 0.1
2018-Apr-18 06:55N 53°33' E 000°04'0 0.1
2018-Apr-18 06:28N 53°33' E 000°04'0 0.0
2018-Apr-18 05:58N 53°33' E 000°04'0 0.0
2018-Apr-18 05:28N 53°33' E 000°04'0 0.0
2018-Apr-18 04:55N 53°33' E 000°04'0 0.0
2018-Apr-18 04:25N 53°33' E 000°04'0 0.0
2018-Apr-18 03:55N 53°33' E 000°04'0 0.0
2018-Apr-18 03:28N 53°33' E 000°04'0 0.0
2018-Apr-18 02:49N 53°33' E 000°04'0 0.0
2018-Apr-18 02:25N 53°33' E 000°04'0 0.0
2018-Apr-18 01:55N 53°33' E 000°04'0 0.1
2018-Apr-18 01:13N 53°33' E 000°04'0 0.2
2018-Apr-18 00:58N 53°33' E 000°04'0 0.1
2018-Apr-18 00:25N 53°33' E 000°04'0 0.0
2018-Apr-17 23:55N 53°33' E 000°04'0 0.0
2018-Apr-17 23:28N 53°33' E 000°04'0 0.0
2018-Apr-17 22:55N 53°33' E 000°04'0 0.0
2018-Apr-17 22:25N 53°33' E 000°04'0 0.0
2018-Apr-17 21:07N 53°33' E 000°04'0 0.1
2018-Apr-17 20:58N 53°33' E 000°04'0 0.1
2018-Apr-17 20:25N 53°33' E 000°04'0 0.2
2018-Apr-17 19:55N 53°33' E 000°04'0 0.1
2018-Apr-17 19:28N 53°33' E 000°04'0 0.1
2018-Apr-17 18:58N 53°33' E 000°04'0 0.1
2018-Apr-17 18:19N 53°33' E 000°04'0 0.1
2018-Apr-17 17:55N 53°33' E 000°04'0 0.0
2018-Apr-17 17:25N 53°33' E 000°04'0 0.0
2018-Apr-17 16:55N 53°33' E 000°04'0 0.0
2018-Apr-17 16:28N 53°33' E 000°04'0 0.0
2018-Apr-17 15:55N 53°33' E 000°04'0 0.0
2018-Apr-17 15:19N 53°33' E 000°04'0 0.0
2018-Apr-17 14:49N 53°33' E 000°04'0 0.1
2018-Apr-17 14:25N 53°33' E 000°04'0 0.1
2018-Apr-17 13:55N 53°33' E 000°04'0 0.1
2018-Apr-17 13:25N 53°33' E 000°04'0 0.1
2018-Apr-17 12:55N 53°33' E 000°04'0 0.0
2018-Apr-17 12:25N 53°33' E 000°04'0 0.0
2018-Apr-17 11:49N 53°33' E 000°04'0 0.1
2018-Apr-17 11:28N 53°33' E 000°04'0 0.0
2018-Apr-17 10:43N 53°33' E 000°04'0 0.1
2018-Apr-17 10:25N 53°33' E 000°04'0 0.1
2018-Apr-17 09:58N 53°33' E 000°04'0 0.0
2018-Apr-17 09:25N 53°33' E 000°04'0 0.0
2018-Apr-17 08:58N 53°33' E 000°04'0 0.1
2018-Apr-17 08:19N 53°33' E 000°04'0 0.2
2018-Apr-17 07:55N 53°33' E 000°04'0 0.1
2018-Apr-17 07:25N 53°33' E 000°04'0 0.1
2018-Apr-17 06:58N 53°33' E 000°04'0 0.1
2018-Apr-17 06:25N 53°33' E 000°04'0 0.1
2018-Apr-17 05:55N 53°33' E 000°04'0 0.0
2018-Apr-17 05:22N 53°33' E 000°04'0 0.0
2018-Apr-17 04:58N 53°33' E 000°04'0 0.0
2018-Apr-17 04:19N 53°33' E 000°04'0 0.0
2018-Apr-17 03:58N 53°33' E 000°04'0 0.0
2018-Apr-17 03:28N 53°33' E 000°04'0 0.0
2018-Apr-17 02:55N 53°33' E 000°04'0 0.0
2018-Apr-17 02:25N 53°33' E 000°04'0 0.0
2018-Apr-17 01:55N 53°33' E 000°04'0 0.0
2018-Apr-17 01:25N 53°33' E 000°04'0 0.1
2018-Apr-17 00:55N 53°33' E 000°04'0 0.3
2018-Apr-17 00:25N 53°33' E 000°04'0 0.1
2018-Apr-16 23:58N 53°33' E 000°04'0 0.0
2018-Apr-16 23:25N 53°33' E 000°04'0 0.0
2018-Apr-16 22:58N 53°33' E 000°04'0 0.0
2018-Apr-16 22:28N 53°33' E 000°04'0 0.0
2018-Apr-16 21:55N 53°33' E 000°04'0 0.0
2018-Apr-16 20:55N 53°33' E 000°04'0 0.0
2018-Apr-16 20:25N 53°33' E 000°04'0 0.1
2018-Apr-16 19:58N 53°33' E 000°04'0 0.1
2018-Apr-16 19:25N 53°33' E 000°04'0 0.1
2018-Apr-16 18:58N 53°33' E 000°04'0 0.1
2018-Apr-16 18:25N 53°33' E 000°04'0 0.1
2018-Apr-16 17:43N 53°33' E 000°04'0 0.0
2018-Apr-16 17:25N 53°33' E 000°04'0 0.0
2018-Apr-16 16:49N 53°33' E 000°04'0 0.0
2018-Apr-16 16:28N 53°33' E 000°04'0 0.0
2018-Apr-16 15:55N 53°33' E 000°04'0 0.0
2018-Apr-16 15:25N 53°33' E 000°04'0 0.0
2018-Apr-16 14:55N 53°33' E 000°04'0 0.0
2018-Apr-16 14:25N 53°33' E 000°04'0 0.0
2018-Apr-16 13:58N 53°33' E 000°04'0 0.1
2018-Apr-16 13:25N 53°33' E 000°04'0 0.3
2018-Apr-16 12:52N 53°33' E 000°04'0 0.0
2018-Apr-16 12:25N 53°33' E 000°04'0 0.0
2018-Apr-16 11:58N 53°33' E 000°04'0 0.0
2018-Apr-16 11:07N 53°33' E 000°04'0 0.0
2018-Apr-16 10:56N 53°33' E 000°04'0 0.9
2018-Apr-16 10:30N 53°33' E 000°05'4 8.7
2018-Apr-16 10:00N 53°33' E 000°13'4512.2
2018-Apr-16 06:17N 53°11' E 001°19'413.6
2018-Apr-16 05:59N 53°07' E 001°22'714.0
2018-Apr-16 05:30N 53°02' E 001°28'714.5
2018-Apr-16 05:00N 52°56' E 001°35'815.2
2018-Apr-16 04:30N 52°51' E 001°45'816.2
2018-Apr-16 04:00N 52°47' E 001°56'816.2
2018-Apr-16 03:30N 52°40' E 002°04'5616.6
2018-Apr-16 00:06N 51°47' E 002°34'416.7
2018-Apr-15 23:51N 51°43' E 002°30'616.5
2018-Apr-15 23:27N 51°38' E 002°24'716.3
2018-Apr-15 23:00N 51°32' E 002°17'815.9
2018-Apr-15 22:30N 51°25' E 002°10'715.1
2018-Apr-15 22:00N 51°18' E 002°06'714.0
2018-Apr-15 21:30N 51°12' E 001°60'714.2
2018-Apr-15 21:00N 51°09' E 001°50'713.5
2018-Apr-15 20:30N 51°05' E 001°42'612.6
2018-Apr-15 20:00N 51°00' E 001°34'812.7
2018-Apr-15 19:24N 50°54' E 001°27'6112.8
2018-Apr-15 14:38N 50°19' E 000°09'213.6
2018-Apr-15 14:30N 50°18' E 000°07'713.2
2018-Apr-15 14:00N 50°14' W 000°02'714.9
2018-Apr-15 13:30N 50°07' W 000°04'714.9
2018-Apr-15 13:00N 49°59' W 000°05'815.2
2018-Apr-15 12:30N 49°52' W 000°06'715.0
2018-Apr-15 12:00N 49°44' W 000°09'815.1
2018-Apr-15 11:30N 49°37' W 000°07'713.8
2018-Apr-15 11:00N 49°30' W 000°04'713.3
2018-Apr-15 10:30N 49°29' E 000°06'3 5.2
2018-Apr-15 10:00N 49°29' E 000°10'0 0.4
2018-Apr-15 09:30N 49°29' E 000°11'2 3.3
2018-Apr-15 09:00N 49°28' E 000°13'0 0.0
2018-Apr-15 08:28N 49°28' E 000°13'0 0.0
2018-Apr-15 07:58N 49°28' E 000°13'0 0.0
2018-Apr-15 07:28N 49°28' E 000°13'0 0.0
2018-Apr-15 06:58N 49°28' E 000°13'0 0.0
2018-Apr-15 06:28N 49°28' E 000°13'0 0.0
2018-Apr-15 05:58N 49°28' E 000°13'0 0.0
2018-Apr-15 05:28N 49°28' E 000°13'0 0.0
2018-Apr-15 04:58N 49°28' E 000°13'0 0.0
2018-Apr-15 04:28N 49°28' E 000°13'0 0.0
2018-Apr-15 03:58N 49°28' E 000°13'0 0.0
2018-Apr-15 03:28N 49°28' E 000°13'0 0.0
2018-Apr-15 02:58N 49°28' E 000°13'0 0.0
2018-Apr-15 02:28N 49°28' E 000°13'0 0.0
2018-Apr-15 01:58N 49°28' E 000°13'0 0.0
2018-Apr-15 01:28N 49°28' E 000°13'0 0.0
2018-Apr-15 00:58N 49°28' E 000°13'0 0.0
2018-Apr-15 00:28N 49°28' E 000°13'0 0.0
2018-Apr-14 23:58N 49°28' E 000°13'0 0.0
2018-Apr-14 23:28N 49°28' E 000°13'0 0.0
2018-Apr-14 22:58N 49°28' E 000°13'0 0.0
2018-Apr-14 22:28N 49°28' E 000°13'0 0.0
2018-Apr-14 21:58N 49°28' E 000°13'0 0.0
2018-Apr-14 21:28N 49°28' E 000°13'0 0.0
2018-Apr-14 20:58N 49°28' E 000°13'0 0.0
2018-Apr-14 20:28N 49°28' E 000°13'0 0.0
2018-Apr-14 19:58N 49°28' E 000°13'0 0.2
2018-Apr-14 19:28N 49°28' E 000°13'2 3.9
2018-Apr-14 19:00N 49°29' E 000°10'1 1.2
2018-Apr-14 18:30N 49°28' E 000°10'4 7.3
2018-Apr-14 18:01N 49°29' E 000°04'  

Dump ship's entire track history